Weather History for Blakely, GA

Change the Weather History Date:

Friday, December 21, 2012

  Actual Average (KDHN) Record (KDHN)
Temperature  
Mean Temperature 46 °F 50 °F  
Max Temperature 53 °F 61 °F 79 °F (2013)
Min Temperature 39 °F 39 °F 22 °F (1945)
Degree Days  
Heating Degree Days 19 15  
Month to date heating degree days 278  
Since 1 July heating degree days 555  
Moisture  
Dew Point 26 °F    
Average Humidity 48    
Maximum Humidity 66    
Minimum Humidity 28    
Precipitation  
Precipitation 0.00 in 0.12 in 2.08 in (2011)
Month to date precipitation 3.34  
Year to date precipitation 52.92  
Sea Level Pressure  
Sea Level Pressure 30.17 in    
Wind  
Wind Speed 8 mph (WNW)    
Max Wind Speed 16 mph    
Max Gust Speed 26 mph    
Visibility 10 miles    
Events      
T = Trace of Precipitation, MM = Missing Value Source: NWS Daily Summary

Daily Weather History Graph

Daily Weather History Graph

Search for Another Location

Airport:

Trip Planner

Search our weather history database for the weather conditions in past years. The results will help you decide how hot, cold, wet, or windy it might be!

Date:

Astronomy

Dec. 21, 2012 Rise Set
Actual Time 7:34 AM EST 5:41 PM EST
Civil Twilight 7:08 AM EST 6:07 PM EST
Nautical Twilight 6:37 AM EST 6:38 PM EST
Astronomical Twilight 6:07 AM EST 7:08 PM EST
Moon 1:13 PM EST (12/21) 1:36 AM EST (12/21)
Length of Visible Light 10h 59m
Length of Day
10h 06m
Waxing Gibbous, 64% of the Moon is Illuminated
Dec 21
Waxing Gibbous
Dec 28
Full
Jan 4
Last Quarter
Jan 11
New
Jan 18
First Quarter

Hourly Weather History & Observations

Time (EST) Temp. Windchill Dew Point Humidity Pressure Visibility Wind Dir Wind Speed Gust Speed Precip Events Conditions
12:15 AM 46.4 °F 41.9 °F 33.8 °F 62% 30.07 in 10.0 mi WNW 9.2 mph - N/A   Clear
12:35 AM 46.4 °F 44.3 °F 33.8 °F 62% 30.08 in 10.0 mi West 4.6 mph - N/A   Clear
12:55 AM 46.4 °F 43.5 °F 33.8 °F 62% 30.08 in 10.0 mi West 5.8 mph - N/A   Clear
1:15 AM 44.6 °F 40.2 °F 33.8 °F 66% 30.08 in 10.0 mi West 8.1 mph - N/A   Clear
1:35 AM 44.6 °F 40.2 °F 33.8 °F 66% 30.08 in 10.0 mi West 8.1 mph - N/A   Clear
1:55 AM 44.6 °F 39.7 °F 33.8 °F 66% 30.08 in 10.0 mi WNW 9.2 mph 19.6 mph N/A   Clear
2:15 AM 44.6 °F 43.1 °F 33.8 °F 66% 30.09 in 10.0 mi West 3.5 mph - N/A   Clear
2:35 AM 44.6 °F 38.8 °F 32.0 °F 61% 30.09 in 10.0 mi NW 11.5 mph 25.3 mph N/A   Clear
2:55 AM 44.6 °F 42.2 °F 32.0 °F 61% 30.10 in 10.0 mi WNW 4.6 mph - N/A   Clear
3:15 AM 42.8 °F 40.1 °F 32.0 °F 66% 30.10 in 10.0 mi West 4.6 mph - N/A   Clear
3:35 AM 42.8 °F 37.5 °F 32.0 °F 66% 30.10 in 10.0 mi WNW 9.2 mph 16.1 mph N/A   Clear
3:55 AM 42.8 °F 38.0 °F 32.0 °F 66% 30.10 in 10.0 mi WNW 8.1 mph - N/A   Clear
4:15 AM 42.8 °F 38.0 °F 30.2 °F 61% 30.10 in 10.0 mi West 8.1 mph - N/A   Clear
4:35 AM 42.8 °F 38.6 °F 30.2 °F 61% 30.10 in 10.0 mi WNW 6.9 mph - N/A   Clear
4:55 AM 42.8 °F 39.3 °F 30.2 °F 61% 30.10 in 10.0 mi West 5.8 mph - N/A   Clear
5:15 AM 41.0 °F 37.1 °F 30.2 °F 65% 30.11 in 10.0 mi West 5.8 mph - N/A   Clear
5:35 AM 41.0 °F 36.4 °F 30.2 °F 65% 30.11 in 10.0 mi WNW 6.9 mph - N/A   Clear
5:55 AM 41.0 °F 35.8 °F 28.4 °F 61% 30.12 in 10.0 mi WNW 8.1 mph 18.4 mph N/A   Clear
6:15 AM 41.0 °F 35.8 °F 30.2 °F 65% 30.12 in 10.0 mi West 8.1 mph - N/A   Clear
6:55 AM 39.2 °F 33.0 °F 28.4 °F 65% 30.14 in 10.0 mi WNW 9.2 mph - N/A   Clear
7:15 AM 39.2 °F 35.0 °F 28.4 °F 65% 30.15 in 10.0 mi West 5.8 mph - N/A   Clear
7:35 AM 39.2 °F 35.0 °F 28.4 °F 65% 30.16 in 10.0 mi West 5.8 mph - N/A   Clear
7:55 AM 39.2 °F 34.2 °F 28.4 °F 65% 30.17 in 10.0 mi West 6.9 mph - N/A   Clear
8:15 AM 41.0 °F 37.1 °F 28.4 °F 61% 30.17 in 10.0 mi WNW 5.8 mph - N/A   Clear
8:35 AM 41.0 °F 35.8 °F 28.4 °F 61% 30.18 in 10.0 mi WNW 8.1 mph - N/A   Clear
8:55 AM 41.0 °F 35.2 °F 26.6 °F 57% 30.18 in 10.0 mi WNW 9.2 mph - N/A   Clear
9:15 AM 42.8 °F 36.6 °F 26.6 °F 53% 30.19 in 10.0 mi West 11.5 mph 18.4 mph N/A   Clear
9:35 AM 42.8 °F 35.8 °F 26.6 °F 53% 30.20 in 10.0 mi WNW 13.8 mph 18.4 mph N/A   Clear
9:55 AM 44.6 °F 39.7 °F 26.6 °F 49% 30.20 in 10.0 mi NW 9.2 mph 18.4 mph N/A   Clear
10:15 AM 44.6 °F 38.8 °F 26.6 °F 49% 30.20 in 10.0 mi WNW 11.5 mph 19.6 mph N/A   Clear
10:35 AM 46.4 °F 40.4 °F 26.6 °F 46% 30.21 in 10.0 mi WNW 13.8 mph 21.9 mph N/A   Clear
10:55 AM 46.4 °F 41.1 °F 26.6 °F 46% 30.21 in 10.0 mi WNW 11.5 mph 24.2 mph N/A   Clear
11:15 AM 48.2 °F - 26.6 °F 43% 30.20 in 10.0 mi WNW 12.7 mph 20.7 mph N/A   Clear
11:35 AM 48.2 °F - 23.0 °F 37% 30.20 in 10.0 mi WNW 11.5 mph 20.7 mph N/A   Clear
11:55 AM 50.0 °F - 23.0 °F 35% 30.19 in 10.0 mi WNW 13.8 mph 26.5 mph N/A   Clear
12:15 PM 50.0 °F - 24.8 °F 37% 30.18 in 10.0 mi WNW 16.1 mph 25.3 mph N/A   Clear
12:35 PM 50.0 °F - 23.0 °F 35% 30.18 in 10.0 mi WNW 15.0 mph 24.2 mph N/A   Clear
12:55 PM 51.8 °F - 23.0 °F 33% 30.17 in 10.0 mi WNW 13.8 mph 21.9 mph N/A   Clear
1:15 PM 51.8 °F - 23.0 °F 33% 30.16 in 10.0 mi WNW 12.7 mph 21.9 mph N/A   Clear
1:35 PM 51.8 °F - 23.0 °F 33% 30.16 in 10.0 mi WNW 5.8 mph 17.3 mph N/A   Clear
1:55 PM 53.6 °F - 23.0 °F 30% 30.15 in 10.0 mi NNW 10.4 mph 21.9 mph N/A   Clear
2:15 PM 53.6 °F - 23.0 °F 30% 30.14 in 10.0 mi NW 6.9 mph 19.6 mph N/A   Clear
2:35 PM 53.6 °F - 23.0 °F 30% 30.14 in 10.0 mi WNW 9.2 mph 20.7 mph N/A   Clear
2:55 PM 53.6 °F - 23.0 °F 30% 30.14 in 10.0 mi WNW 9.2 mph 18.4 mph N/A   Clear
3:15 PM 53.6 °F - 21.2 °F 28% 30.14 in 10.0 mi WNW 12.7 mph 19.6 mph N/A   Clear
3:35 PM 53.6 °F - 21.2 °F 28% 30.14 in 10.0 mi NW 10.4 mph 20.7 mph N/A   Clear
3:55 PM 53.6 °F - 21.2 °F 28% 30.14 in 10.0 mi WNW 5.8 mph - N/A   Clear
4:15 PM 53.6 °F - 21.2 °F 28% 30.14 in 10.0 mi NW 6.9 mph - N/A   Clear
4:35 PM 53.6 °F - 21.2 °F 28% 30.14 in 10.0 mi NW 6.9 mph 17.3 mph N/A   Clear
4:55 PM 53.6 °F - 21.2 °F 28% 30.15 in 10.0 mi WNW 10.4 mph 16.1 mph N/A   Clear
5:15 PM 51.8 °F - 21.2 °F 30% 30.16 in 10.0 mi WNW 5.8 mph - N/A   Clear
5:35 PM 51.8 °F - 21.2 °F 30% 30.17 in 10.0 mi WNW 6.9 mph - N/A   Clear
5:55 PM 50.0 °F - 21.2 °F 32% 30.18 in 10.0 mi West 4.6 mph - N/A   Clear
6:15 PM 48.2 °F - 21.2 °F 34% 30.19 in 10.0 mi West 4.6 mph - N/A   Clear
6:35 PM 46.4 °F 44.3 °F 21.2 °F 37% 30.19 in 10.0 mi West 4.6 mph - N/A   Clear
6:55 PM 46.4 °F 44.3 °F 21.2 °F 37% 30.20 in 10.0 mi West 4.6 mph - N/A   Clear
7:15 PM 44.6 °F - 23.0 °F 43% 30.21 in 10.0 mi Calm Calm - N/A   Clear
7:35 PM 44.6 °F - 23.0 °F 43% 30.22 in 10.0 mi Calm Calm - N/A   Clear
7:55 PM 42.8 °F 40.1 °F 23.0 °F 46% 30.23 in 10.0 mi West 4.6 mph - N/A   Clear
8:15 PM 42.8 °F 40.1 °F 23.0 °F 46% 30.23 in 10.0 mi West 4.6 mph - N/A   Clear
8:35 PM 42.8 °F 40.1 °F 23.0 °F 46% 30.24 in 10.0 mi West 4.6 mph - N/A   Clear
8:55 PM 42.8 °F 41.1 °F 23.0 °F 46% 30.24 in 10.0 mi West 3.5 mph - N/A   Clear
9:15 PM 42.8 °F 40.1 °F 23.0 °F 46% 30.25 in 10.0 mi West 4.6 mph - N/A   Clear
9:35 PM 42.8 °F 41.1 °F 23.0 °F 46% 30.25 in 10.0 mi West 3.5 mph - N/A   Clear
9:55 PM 41.0 °F 38.0 °F 23.0 °F 49% 30.25 in 10.0 mi West 4.6 mph - N/A   Clear
10:15 PM 42.8 °F 39.3 °F 23.0 °F 46% 30.26 in 10.0 mi WNW 5.8 mph - N/A   Clear
10:35 PM 42.8 °F 38.6 °F 23.0 °F 46% 30.26 in 10.0 mi WNW 6.9 mph - N/A   Clear
10:55 PM 42.8 °F 37.5 °F 21.2 °F 42% 30.26 in 10.0 mi WNW 9.2 mph - N/A   Clear
11:15 PM 42.8 °F 40.1 °F 21.2 °F 42% 30.27 in 10.0 mi WNW 4.6 mph - N/A   Clear
11:35 PM 42.8 °F 39.3 °F 21.2 °F 42% 30.27 in 10.0 mi WNW 5.8 mph - N/A   Clear
11:55 PM 42.8 °F 40.1 °F 21.2 °F 42% 30.27 in 10.0 mi NW 4.6 mph - N/A   Clear